WTTO2: Illinois River, Watts, OK

                                SHEF ID:       WTTO2     Illinois River near Watts, OK
STATION TYPE: Stream Gauge
Regulating: Stage = 13.00, Flow = 11165

PRECIP STAGE STAGE(2) RIV-FLOW WTR-TEMP VOLTAGE BAT-LOAD
in ft ft cfs F volt volt
Ccp-Rev Ccp-Rev Ccp-Rev Ccp-Rev Ccp-Rev Ccp-Rev Ccp-Rev
(America/Chicago)
05/01 00:00 0.00 4.74 ---- 1322 63.86 ---- 12.82
05/01 01:00 0.00 4.72 ---- 1310 63.66 ---- 12.77
05/01 02:00 0.00 4.70 ---- 1299 63.41 ---- 12.72
05/01 03:00 0.00 4.68 ---- 1288 63.14 ---- 12.70
05/01 04:00 0.00 4.66 ---- 1276 62.85 ---- 12.67
05/01 05:00 0.00 4.64 ---- 1265 62.60 ---- 12.64
05/01 06:00 0.00 4.61 ---- 1249 62.29 ---- 12.61
05/01 07:00 0.00 4.59 ---- 1238 62.04 ---- 12.60
05/01 08:00 0.00 4.49 ---- 1184 61.90 ---- 13.05
05/01 09:00 0.00 4.52 ---- 1200 61.75 ---- 13.55
05/01 10:00 0.00 4.52 ---- 1200 61.79 ---- 13.55
05/01 11:00 0.00 4.50 ---- 1189 61.97 ---- 13.59
05/01 12:00 0.00 4.45 ---- 1162 62.33 ---- 13.65
05/01 13:00 0.00 4.48 ---- 1178 62.55 ---- 13.66
05/01 14:00 0.00 4.44 ---- 1157 63.00 ---- 13.61
05/01 15:00 0.00 4.42 ---- 1147 63.54 ---- 13.47
05/01 16:00 0.00 4.39 ---- 1131 63.95 ---- 13.39
05/01 17:00 0.00 4.36 ---- 1115 64.31 ---- 13.36
05/01 18:00 0.00 4.35 ---- 1110 64.56 ---- 13.34
05/01 19:00 0.00 4.33 ---- 1100 64.72 ---- 13.32
05/01 20:00 0.00 4.31 ---- 1090 64.74 ---- 13.31
05/01 21:00 0.00 4.30 ---- 1085 64.74 ---- 13.13
05/01 22:00 0.00 4.29 ---- 1080 64.60 ---- 12.99
05/01 23:00 0.00 4.28 ---- 1075 64.47 ---- 12.90
Data processed at Sat 02May2026 04:35 GMT

NOTICE: If you are parsing this page

Please convert to using our Data API. Starting early 2026 we will be migrating to: https://water.usace.army.mil with modern pages rendered in JavaScript. When this migration completes you will no longer be able to scrape this page! CWMSDataAPI (CDA)

Timeseries IDs (TSIDs)

TSIDs used from left to right in the data table
WATT.Precip-Inc.Total.1Hour.1Hour.Ccp-Rev
WATT.Stage.Inst.1Hour.0.Ccp-Rev
WATT.Stage-Alt.Inst.1Hour.0.Ccp-Rev
WATT.Flow.Inst.1Hour.0.Ccp-Rev
WATT.Temp-Water.Inst.1Hour.0.Ccp-Rev
WATT.Volt-Battery.Inst.1Hour.0.Ccp-Rev
WATT.Volt-Battery Load.Inst.1Hour.0.Ccp-Rev

                            

All information presented herein is the property of the government of the United States of America and may be revised or deleted at any time without prior notice. Dissemination of this information without the expressed written consent of the Public Affairs Office, Tulsa District U.S. Army Corps of Engineers is strictly prohibited. These data are gathered electronically and, as presented, have NOT undergone any form of quality control. These data are NOT guaranteed to be valid or correct.